Time;durP1;ratioP1;P1;durP2;ratioP2;P2;SDS_P1;SDS_P2;PMS_P1;PMS_P2;Temp;Humidity;BMP_temperature;BMP_pressure;BME280_temperature;BME280_humidity;BME280_pressure;Samples;Min_cycle;Max_cycle;Signal;HPM_P1;HPM_P2
2022/08/22 00:00:22;;;;;;;14.45;9.75;;;13.50;99.90;;;;;;5052813;28;20044;-28
2022/08/22 00:03:09;;;;;;;14.80;10.30;;;13.50;99.90;;;;;;5055563;28;20144;-28
2022/08/22 00:06:01;;;;;;;17.63;9.18;;;13.40;99.90;;;;;;5054719;28;20403;-28
2022/08/22 00:08:47;;;;;;;16.20;10.85;;;13.50;99.90;;;;;;5054385;28;20163;-28
2022/08/22 00:11:27;;;;;;;18.60;9.98;;;13.50;99.90;;;;;;5054374;28;20041;-28
2022/08/22 00:14:09;;;;;;;19.63;11.77;;;13.60;99.90;;;;;;5054248;28;20111;-28
2022/08/22 00:16:59;;;;;;;13.90;10.38;;;13.50;1.00;;;;;;5053040;28;20540;-28
2022/08/22 00:19:58;;;;;;;14.40;11.63;;;13.60;1.00;;;;;;5052890;28;20442;-28
2022/08/22 00:22:35;;;;;;;30.60;17.02;;;13.60;1.00;;;;;;5043777;28;20045;-28
2022/08/22 00:25:38;;;;;;;23.10;14.77;;;13.60;1.00;;;;;;5054230;28;20107;-28
2022/08/22 00:28:15;;;;;;;22.52;13.88;;;13.70;1.00;;;;;;5031440;28;20455;-29
2022/08/22 00:30:57;;;;;;;23.38;14.98;;;13.60;1.00;;;;;;5053882;28;20048;-28
2022/08/22 00:33:40;;;;;;;24.15;13.15;;;13.70;1.00;;;;;;5054555;28;20049;-29
2022/08/22 00:36:35;;;;;;;18.92;11.45;;;13.60;1.00;;;;;;5054927;28;20045;-28
2022/08/22 00:39:11;;;;;;;21.75;12.10;;;13.70;1.00;;;;;;5048983;28;20120;-28
2022/08/22 00:41:48;;;;;;;19.83;12.18;;;13.70;1.00;;;;;;5054789;28;20056;-28
2022/08/22 00:44:34;;;;;;;17.40;10.93;;;13.60;1.00;;;;;;5054679;28;20483;-28
2022/08/22 00:47:24;;;;;;;16.38;10.75;;;13.60;1.00;;;;;;5055543;28;20049;-28
2022/08/22 00:49:59;;;;;;;20.05;11.77;;;13.60;1.00;;;;;;5055226;28;20391;-28
2022/08/22 00:52:51;;;;;;;17.20;11.50;;;13.60;1.00;;;;;;5053307;28;20053;-28
2022/08/22 00:55:46;;;;;;;23.73;12.98;;;13.80;1.00;;;;;;5028188;28;20407;-29
2022/08/22 00:58:58;;;;;;;25.05;13.88;;;13.60;1.00;;;;;;5041636;28;20055;-29
2022/08/22 01:01:39;;;;;;;22.27;14.30;;;13.90;1.00;;;;;;5052659;28;20071;-29
2022/08/22 01:04:32;;;;;;;18.65;12.50;;;13.70;1.00;;;;;;5054638;28;20048;-28
2022/08/22 01:07:33;;;;;;;17.20;11.50;;;13.80;1.00;;;;;;5053978;28;20426;-28
2022/08/22 01:10:28;;;;;;;19.00;12.57;;;13.70;1.00;;;;;;5035213;28;20068;-28
2022/08/22 01:13:19;;;;;;;22.55;12.93;;;13.80;1.00;;;;;;5053330;28;20052;-28
2022/08/22 01:15:52;;;;;;;19.75;12.43;;;13.80;20.90;;;;;;5053725;28;20049;-28
2022/08/22 01:18:44;;;;;;;19.92;11.85;;;13.60;23.60;;;;;;5052392;28;20055;-28
2022/08/22 01:21:55;;;;;;;15.25;9.93;;;13.70;3.90;;;;;;5051455;28;20049;-28
2022/08/22 01:25:16;;;;;;;18.50;12.25;;;13.60;7.70;;;;;;5042572;28;20056;-28
2022/08/22 01:28:34;;;;;;;25.10;14.63;;;13.70;2.30;;;;;;5052962;28;20503;-28
2022/08/22 01:31:47;;;;;;;24.73;14.10;;;13.70;33.50;;;;;;5040327;28;20563;-29
2022/08/22 01:34:50;;;;;;;18.05;10.68;;;13.80;41.70;;;;;;5053701;28;20045;-28
2022/08/22 01:37:25;;;;;;;13.23;11.15;;;13.60;28.80;;;;;;5052982;28;20045;-28
2022/08/22 01:40:35;;;;;;;18.25;10.05;;;13.70;39.70;;;;;;5052630;28;20041;-28
2022/08/22 01:43:21;;;;;;;18.42;11.60;;;13.50;34.70;;;;;;5051523;28;20048;-28
2022/08/22 01:45:52;;;;;;;15.85;11.10;;;13.60;55.80;;;;;;5055859;28;20128;-28
2022/08/22 01:48:29;;;;;;;15.80;9.77;;;13.70;62.60;;;;;;5052241;28;20060;-28
2022/08/22 01:51:37;;;;;;;14.38;9.45;;;13.70;81.70;;;;;;5037286;28;20118;-28
2022/08/22 01:54:52;;;;;;;16.23;11.82;;;13.50;53.30;;;;;;5043117;28;20144;-29
2022/08/22 01:57:27;;;;;;;22.67;14.43;;;13.50;45.10;;;;;;5052960;28;20049;-28
2022/08/22 02:00:05;;;;;;;29.25;18.77;;;13.30;52.10;;;;;;5051222;28;20045;-28
2022/08/22 02:03:05;;;;;;;21.27;14.15;;;13.30;80.90;;;;;;5051951;28;20080;-29
2022/08/22 02:05:51;;;;;;;36.10;19.17;;;13.30;95.80;;;;;;5050170;28;20057;-28
2022/08/22 02:08:43;;;;;;;17.75;13.32;;;13.40;95.00;;;;;;5034233;28;20041;-28
2022/08/22 02:11:33;;;;;;;19.90;14.02;;;13.30;87.40;;;;;;5034441;28;20072;-28
2022/08/22 02:14:40;;;;;;;14.80;9.82;;;13.20;55.70;;;;;;5047724;28;20053;-28
2022/08/22 02:17:26;;;;;;;15.50;12.10;;;13.10;55.10;;;;;;5043358;28;20430;-28
2022/08/22 02:20:27;;;;;;;17.83;12.13;;;13.10;52.00;;;;;;5051376;28;20033;-28
2022/08/22 02:23:03;;;;;;;8.02;6.10;;;13.10;95.30;;;;;;5051446;28;20071;-28
2022/08/22 02:25:49;;;;;;;65.13;21.63;;;13.00;91.40;;;;;;5050408;28;20501;-28
2022/08/22 02:28:34;;;;;;;844.40;46.33;;;13.00;99.90;;;;;;5051911;28;20052;-28
2022/08/22 02:31:19;;;;;;;22.50;10.95;;;13.00;99.90;;;;;;5053108;28;20088;-28
2022/08/22 02:33:56;;;;;;;204.90;9.98;;;12.70;99.90;;;;;;5050736;28;20055;-28
2022/08/22 02:36:47;;;;;;;20.27;9.30;;;12.60;96.00;;;;;;5052833;28;20049;-28
2022/08/22 02:39:47;;;;;;;37.60;9.23;;;12.60;64.10;;;;;;5053477;28;20399;-28
2022/08/22 02:42:39;;;;;;;15.23;11.38;;;12.30;79.80;;;;;;5054817;28;20128;-28
2022/08/22 02:45:23;;;;;;;29.13;16.42;;;12.50;99.90;;;;;;5036443;28;20075;-27
2022/08/22 02:48:18;;;;;;;32.08;16.80;;;12.50;99.90;;;;;;5052365;28;20055;-28
2022/08/22 02:51:09;;;;;;;12.85;10.80;;;12.50;99.90;;;;;;5044142;28;20044;-28
2022/08/22 02:54:11;;;;;;;12.85;9.80;;;12.40;99.90;;;;;;5056320;28;20053;-28
2022/08/22 02:56:58;;;;;;;17.40;13.95;;;12.40;99.90;;;;;;5029325;28;20415;-29
2022/08/22 02:59:29;;;;;;;25.27;17.33;;;12.30;99.90;;;;;;5057292;28;20037;-27
2022/08/22 03:01:55;;;;;;;16.55;12.25;;;12.10;99.90;;;;;;5055441;28;20571;-28
2022/08/22 03:04:41;;;;;;;39.25;13.48;;;12.10;99.90;;;;;;5055435;28;20537;-28
2022/08/22 03:07:15;;;;;;;20.02;9.80;;;12.10;99.90;;;;;;5056419;28;20169;-28
2022/08/22 03:09:50;;;;;;;9.23;8.20;;;12.20;99.90;;;;;;5058474;28;20064;-28
2022/08/22 03:12:28;;;;;;;17.13;10.52;;;11.90;99.90;;;;;;5076444;28;20071;-27
2022/08/22 03:15:14;;;;;;;10.27;9.18;;;12.00;99.90;;;;;;5058424;28;20060;-28
2022/08/22 03:18:08;;;;;;;26.80;17.67;;;12.10;99.90;;;;;;5057025;28;20053;-27
2022/08/22 03:20:41;;;;;;;20.17;14.43;;;11.90;99.90;;;;;;5055512;28;20037;-28
2022/08/22 03:23:24;;;;;;;15.65;11.45;;;12.00;99.90;;;;;;5054958;28;20041;-29
2022/08/22 03:26:09;;;;;;;28.05;15.88;;;11.90;99.90;;;;;;5055239;28;20049;-28
2022/08/22 03:28:52;;;;;;;12.18;7.50;;;12.00;99.90;;;;;;5056174;28;20056;-27
2022/08/22 03:31:27;;;;;;;12.57;8.27;;;12.00;99.90;;;;;;5056771;28;20053;-28
2022/08/22 03:34:28;;;;;;;15.57;10.25;;;11.90;99.90;;;;;;5056172;28;20044;-27
2022/08/22 03:37:34;;;;;;;11.57;7.65;;;11.90;99.90;;;;;;5012324;28;20613;-28
2022/08/22 03:40:19;;;;;;;10.55;6.82;;;12.00;99.90;;;;;;5046237;28;20045;-28
2022/08/22 03:42:59;;;;;;;10.95;8.15;;;12.00;99.90;;;;;;5054985;28;20036;-27
2022/08/22 03:46:22;;;;;;;14.10;8.38;;;12.00;99.90;;;;;;5070989;28;20048;-28
2022/08/22 03:48:53;;;;;;;8.55;7.18;;;11.80;99.90;;;;;;5076488;28;20045;-28
2022/08/22 03:51:44;;;;;;;9.27;5.90;;;11.90;99.90;;;;;;5075855;28;20040;-28
2022/08/22 03:54:45;;;;;;;8.85;7.32;;;11.70;99.90;;;;;;5074758;28;20131;-28
2022/08/22 03:57:35;;;;;;;5.47;4.38;;;11.70;99.90;;;;;;5057776;28;20040;-28
2022/08/22 04:01:00;;;;;;;8.68;5.05;;;11.60;99.90;;;;;;5070818;28;20384;-28
2022/08/22 04:04:19;;;;;;;5.78;5.18;;;11.80;99.90;;;;;;5056254;28;20057;-27
2022/08/22 04:07:25;;;;;;;3.47;3.17;;;11.80;99.90;;;;;;5054553;28;20055;-27
2022/08/22 04:10:01;;;;;;;4.55;3.40;;;11.60;99.90;;;;;;5037536;28;20053;-27
2022/08/22 04:12:49;;;;;;;5.18;3.80;;;11.70;99.90;;;;;;5056263;28;20045;-28
2022/08/22 04:15:38;;;;;;;6.78;6.10;;;11.40;99.90;;;;;;5055941;28;20053;-27
2022/08/22 04:18:48;;;;;;;11.95;7.38;;;11.50;99.90;;;;;;5055169;28;20133;-28
2022/08/22 04:22:07;;;;;;;7.35;4.78;;;11.50;99.90;;;;;;5048283;28;20064;-28
2022/08/22 04:24:58;;;;;;;4.55;2.72;;;11.60;99.90;;;;;;4993541;28;20073;-27
2022/08/22 04:27:56;;;;;;;3.97;3.08;;;11.30;99.90;;;;;;4993546;28;20046;-28
2022/08/22 04:30:42;;;;;;;2.97;2.47;;;11.30;99.90;;;;;;4968451;28;20054;-27
2022/08/22 04:33:29;;;;;;;4.60;2.60;;;11.20;99.90;;;;;;5041674;28;20111;-28
2022/08/22 04:36:27;;;;;;;29.88;3.25;;;11.30;99.90;;;;;;5056018;28;20044;-27
2022/08/22 04:39:09;;;;;;;45.25;2.67;;;11.00;99.90;;;;;;5046304;28;20053;-27
2022/08/22 04:42:06;;;;;;;2.10;1.90;;;10.90;99.90;;;;;;5055114;28;20434;-27
2022/08/22 04:44:46;;;;;;;3.67;2.17;;;10.70;50.40;;;;;;5054419;28;20407;-28
2022/08/22 04:47:39;;;;;;;2.45;2.25;;;10.50;45.10;;;;;;5054629;28;20059;-27
2022/08/22 04:50:18;;;;;;;2.13;1.92;;;10.40;69.80;;;;;;5052592;28;20056;-27
2022/08/22 04:53:22;;;;;;;2.05;1.95;;;10.40;99.90;;;;;;5055271;28;20048;-27
2022/08/22 04:55:55;;;;;;;16.95;4.53;;;10.30;99.90;;;;;;5054448;28;20103;-27
2022/08/22 04:58:42;;;;;;;23.05;4.15;;;10.50;99.90;;;;;;5054410;28;20052;-27
2022/08/22 05:01:35;;;;;;;3.28;3.08;;;10.50;99.90;;;;;;5051836;28;20490;-27
2022/08/22 05:04:09;;;;;;;2.53;2.33;;;10.50;99.90;;;;;;5052908;28;20041;-27
2022/08/22 05:06:42;;;;;;;5.65;3.70;;;10.50;99.90;;;;;;5054664;28;20107;-27
2022/08/22 05:09:16;;;;;;;6.03;4.13;;;10.40;99.90;;;;;;5054453;28;20099;-27
2022/08/22 05:11:49;;;;;;;6.55;4.45;;;10.50;99.90;;;;;;5055144;28;20048;-28
2022/08/22 05:14:21;;;;;;;5.30;3.15;;;10.50;99.90;;;;;;5055160;28;20076;-27
2022/08/22 05:16:54;;;;;;;4.70;4.25;;;10.60;99.90;;;;;;5054875;28;20048;-29
2022/08/22 05:19:33;;;;;;;4.97;3.45;;;11.00;99.90;;;;;;5054031;28;20041;-27
2022/08/22 05:22:00;;;;;;;4.35;3.95;;;11.20;99.90;;;;;;5054137;28;20045;-27
2022/08/22 05:24:45;;;;;;;5.88;5.38;;;11.20;99.90;;;;;;5053136;28;20049;-27
2022/08/22 05:27:24;;;;;;;7.20;5.60;;;11.20;99.90;;;;;;5053563;28;20493;-27
2022/08/22 05:30:10;;;;;;;7.60;6.35;;;11.40;99.90;;;;;;5054842;28;20433;-27
2022/08/22 05:33:16;;;;;;;12.15;8.98;;;11.30;99.90;;;;;;5053123;28;20064;-28
2022/08/22 05:35:48;;;;;;;8.05;7.25;;;11.60;99.90;;;;;;5053839;28;20514;-28
2022/08/22 05:38:19;;;;;;;7.13;5.60;;;11.60;99.90;;;;;;5053841;28;20132;-28
2022/08/22 05:40:58;;;;;;;7.22;5.93;;;11.70;99.90;;;;;;5053864;28;20045;-27
2022/08/22 05:43:25;;;;;;;9.90;5.30;;;11.80;99.90;;;;;;5042677;28;20505;-27
2022/08/22 05:45:57;;;;;;;5.28;4.13;;;12.00;99.90;;;;;;5053803;28;20041;-28
2022/08/22 05:48:38;;;;;;;7.47;4.80;;;12.10;99.90;;;;;;5053777;28;20088;-27
2022/08/22 05:51:23;;;;;;;7.32;5.20;;;12.50;99.90;;;;;;5053720;28;20049;-28
2022/08/22 05:54:05;;;;;;;6.60;5.80;;;12.90;99.90;;;;;;5054499;28;20105;-28
2022/08/22 05:56:42;;;;;;;7.57;6.13;;;13.00;99.90;;;;;;5053414;28;20107;-27
2022/08/22 05:59:30;;;;;;;8.32;6.43;;;13.40;99.90;;;;;;5053104;28;20045;-27
2022/08/22 06:02:15;;;;;;;12.55;8.25;;;13.80;99.90;;;;;;5033675;28;20136;-28
2022/08/22 06:04:53;;;;;;;13.70;9.50;;;13.90;99.90;;;;;;5040160;28;20506;-28
2022/08/22 06:07:30;;;;;;;15.13;9.85;;;14.30;99.90;;;;;;5053327;28;20103;-28
2022/08/22 06:10:30;;;;;;;14.15;10.10;;;14.80;99.90;;;;;;5051508;28;20060;-28
2022/08/22 06:13:17;;;;;;;20.73;11.65;;;15.00;99.90;;;;;;5054340;28;20392;-28
2022/08/22 06:16:07;;;;;;;22.50;10.52;;;15.40;99.90;;;;;;5052661;28;20124;-29
2022/08/22 06:18:41;;;;;;;17.60;9.18;;;15.80;99.90;;;;;;5057357;28;20043;-28
2022/08/22 06:21:20;;;;;;;20.60;10.98;;;16.40;99.90;;;;;;5055673;28;20051;-28
2022/08/22 06:23:55;;;;;;;20.63;8.95;;;16.60;99.90;;;;;;5055145;28;20044;-28
2022/08/22 06:26:24;;;;;;;18.63;8.85;;;16.80;99.90;;;;;;5057932;28;20072;-28
2022/08/22 06:28:54;;;;;;;15.98;7.65;;;17.00;99.90;;;;;;5057289;28;20124;-28
2022/08/22 06:31:24;;;;;;;15.68;6.55;;;17.20;99.90;;;;;;5057216;28;20044;-28
2022/08/22 06:34:21;;;;;;;17.50;7.10;;;17.20;99.90;;;;;;5057268;28;20058;-28
2022/08/22 06:36:49;;;;;;;14.73;6.00;;;17.60;99.90;;;;;;5058300;28;20128;-28
2022/08/22 06:39:19;;;;;;;19.33;6.35;;;17.70;99.90;;;;;;5055872;28;20052;-28
2022/08/22 06:42:10;;;;;;;16.88;6.10;;;17.80;99.90;;;;;;5057181;28;20399;-28
2022/08/22 06:44:42;;;;;;;14.23;4.97;;;18.00;99.90;;;;;;5057105;28;20041;-28
2022/08/22 06:47:21;;;;;;;19.58;5.03;;;18.10;1.00;;;;;;5057108;28;20047;-28
2022/08/22 06:49:58;;;;;;;11.77;4.78;;;18.10;1.00;;;;;;5055491;28;20110;-28
2022/08/22 06:52:27;;;;;;;12.95;4.85;;;18.10;99.90;;;;;;5056181;28;20461;-28
2022/08/22 06:55:05;;;;;;;11.30;4.25;;;18.20;99.90;;;;;;5039308;28;20048;-28
2022/08/22 06:57:54;;;;;;;24.40;7.28;;;18.20;99.90;;;;;;5057166;28;20493;-28
2022/08/22 07:00:23;;;;;;;16.15;6.07;;;18.30;99.90;;;;;;5055554;28;20052;-28
2022/08/22 07:02:56;;;;;;;11.38;5.70;;;18.30;1.00;;;;;;5051358;28;20046;-28
2022/08/22 07:05:28;;;;;;;13.75;5.55;;;18.40;1.00;;;;;;5046659;28;20076;-28
2022/08/22 07:07:55;;;;;;;12.85;4.43;;;18.50;99.90;;;;;;5043733;28;20048;-28
2022/08/22 07:10:22;;;;;;;11.60;4.55;;;18.50;99.90;;;;;;5075417;28;20045;-28
2022/08/22 07:12:56;;;;;;;13.30;6.28;;;18.60;99.90;;;;;;5062642;28;20049;-28
2022/08/22 07:15:38;;;;;;;12.13;4.50;;;18.60;99.90;;;;;;5072046;28;20084;-28
2022/08/22 07:18:08;;;;;;;16.55;4.80;;;18.60;1.00;;;;;;5055567;28;20084;-28
2022/08/22 07:20:40;;;;;;;11.63;4.85;;;18.70;1.00;;;;;;5056962;28;20463;-28
2022/08/22 07:23:13;;;;;;;10.65;4.80;;;18.70;1.00;;;;;;5055392;28;20057;-28
2022/08/22 07:26:03;;;;;;;17.10;5.40;;;18.80;1.00;;;;;;5057153;28;20045;-28
2022/08/22 07:28:52;;;;;;;16.25;5.75;;;18.80;1.00;;;;;;5056271;28;20132;-28
2022/08/22 07:31:30;;;;;;;16.23;5.55;;;18.90;1.00;;;;;;5053405;28;20526;-28
2022/08/22 07:34:03;;;;;;;16.25;5.80;;;19.00;1.00;;;;;;5055437;28;20139;-28
2022/08/22 07:36:55;;;;;;;10.05;6.13;;;19.10;99.90;;;;;;5056118;28;20041;-28
2022/08/22 07:39:31;;;;;;;13.05;5.78;;;19.20;99.90;;;;;;5055117;28;20045;-28
2022/08/22 07:42:14;;;;;;;10.77;5.20;;;19.30;99.90;;;;;;5055063;28;20072;-28
2022/08/22 07:45:04;;;;;;;10.40;5.15;;;19.30;99.90;;;;;;5056551;28;20095;-29
2022/08/22 07:47:59;;;;;;;13.93;5.43;;;19.40;99.90;;;;;;5056752;28;20044;-29
2022/08/22 07:50:32;;;;;;;13.90;4.25;;;19.50;99.90;;;;;;5053803;28;20113;-28
2022/08/22 07:53:06;;;;;;;;;;;19.60;99.90;;;;;;5055111;28;20045;-28
2022/08/22 07:55:45;;;;;;;13.35;4.20;;;19.60;99.90;;;;;;5051482;28;20263;-29
2022/08/22 07:58:15;;;;;;;13.77;3.80;;;19.70;1.00;;;;;;5036441;28;20064;-28
2022/08/22 08:00:47;;;;;;;14.70;3.65;;;19.70;1.00;;;;;;5036593;28;20490;-28
2022/08/22 08:03:16;;;;;;;11.27;5.00;;;19.80;1.00;;;;;;5055568;28;20077;-29
2022/08/22 08:05:43;;;;;;;14.70;4.65;;;19.90;1.00;;;;;;5050607;28;20126;-28
2022/08/22 08:08:26;;;;;;;9.65;3.25;;;20.00;1.00;;;;;;5055058;28;20395;-28
2022/08/22 08:10:55;;;;;;;14.45;3.90;;;20.10;1.00;;;;;;5054547;28;20502;-29
2022/08/22 08:13:37;;;;;;;11.52;4.47;;;20.10;1.00;;;;;;5053133;28;20053;-28
2022/08/22 08:16:06;;;;;;;12.13;3.25;;;20.10;99.90;;;;;;5052986;28;20479;-29
2022/08/22 08:18:33;;;;;;;14.32;4.13;;;20.10;99.90;;;;;;5034296;28;20049;-28
2022/08/22 08:21:06;;;;;;;9.48;3.28;;;20.20;99.90;;;;;;5034976;28;20499;-28
2022/08/22 08:23:43;;;;;;;12.80;2.67;;;20.30;99.90;;;;;;5035361;28;20072;-29
2022/08/22 08:26:17;;;;;;;11.48;2.53;;;20.30;99.90;;;;;;5036277;28;20554;-29
2022/08/22 08:28:56;;;;;;;13.40;2.78;;;20.30;99.90;;;;;;5054451;28;20049;-28
2022/08/22 08:31:34;;;;;;;14.32;3.38;;;20.30;99.90;;;;;;5054123;28;20103;-28
2022/08/22 08:34:17;;;;;;;9.77;3.30;;;20.40;99.90;;;;;;5055117;28;20079;-28
2022/08/22 08:36:51;;;;;;;12.13;2.38;;;20.40;99.90;;;;;;5036463;28;20053;-28
2022/08/22 08:39:29;;;;;;;9.52;2.67;;;20.50;99.90;;;;;;5053926;28;20049;-29
2022/08/22 08:42:09;;;;;;;10.60;2.40;;;20.60;99.90;;;;;;5054916;28;20052;-29
2022/08/22 08:45:03;;;;;;;10.77;3.17;;;20.70;99.90;;;;;;5055674;28;20045;-28
2022/08/22 08:47:29;;;;;;;11.95;3.13;;;20.80;1.00;;;;;;5053604;28;20564;-29
2022/08/22 08:49:58;;;;;;;14.10;3.75;;;21.00;7.30;;;;;;5053546;28;20045;-29
2022/08/22 08:52:51;;;;;;;12.50;3.83;;;21.10;20.30;;;;;;5054903;28;20491;-29
2022/08/22 08:55:19;;;;;;;12.25;2.25;;;21.20;1.00;;;;;;5054706;28;20044;-28
2022/08/22 08:58:06;;;;;;;18.98;2.90;;;21.30;1.00;;;;;;5053440;28;20045;-28
2022/08/22 09:00:41;;;;;;;10.57;2.22;;;21.30;1.00;;;;;;5053104;28;20478;-29
2022/08/22 09:03:42;;;;;;;11.82;2.50;;;21.60;1.00;;;;;;5054408;28;20058;-28
2022/08/22 09:06:23;;;;;;;9.93;2.03;;;21.80;99.90;;;;;;5054130;28;20065;-28
2022/08/22 09:09:23;;;;;;;8.90;2.50;;;22.00;1.00;;;;;;5053553;28;20120;-28
2022/08/22 09:12:13;;;;;;;9.68;2.75;;;22.70;99.90;;;;;;5053963;28;20495;-28
2022/08/22 09:14:50;;;;;;;8.90;1.85;;;23.10;99.90;;;;;;5050079;28;20053;-28
2022/08/22 09:17:54;;;;;;;9.57;3.25;;;23.10;20.50;;;;;;5054810;28;20441;-28
2022/08/22 09:20:41;;;;;;;10.18;2.72;;;23.20;1.00;;;;;;5036679;28;20033;-29
2022/08/22 09:23:29;;;;;;;9.73;2.53;;;23.30;1.00;;;;;;5035030;28;20056;-28
2022/08/22 09:26:27;;;;;;;6.70;1.85;;;23.80;1.00;;;;;;5033289;28;20041;-29
2022/08/22 09:29:23;;;;;;;11.40;2.72;;;24.70;99.90;;;;;;5036326;28;20071;-28
2022/08/22 09:32:22;;;;;;;8.50;2.00;;;25.60;99.90;;;;;;5049983;28;20495;-30
2022/08/22 09:35:00;;;;;;;8.73;2.60;;;26.50;1.00;;;;;;5053919;28;20136;-29
2022/08/22 09:38:04;;;;;;;9.98;2.47;;;26.80;28.90;;;;;;5051582;28;20044;-29
2022/08/22 09:40:47;;;;;;;7.80;2.58;;;27.10;1.00;;;;;;5045655;28;20048;-28
2022/08/22 09:43:22;;;;;;;10.80;2.85;;;27.70;1.00;;;;;;5044765;28;20041;-29
2022/08/22 09:46:20;;;;;;;8.90;2.58;;;28.10;99.90;;;;;;5045638;28;20048;-29
2022/08/22 09:49:13;;;;;;;8.30;2.60;;;28.10;99.90;;;;;;5041536;28;20040;-29
2022/08/22 09:52:06;;;;;;;9.63;2.28;;;28.20;99.90;;;;;;5053155;28;20098;-29
2022/08/22 09:54:58;;;;;;;;;;;28.20;99.90;;;;;;5051126;28;20421;-29
2022/08/22 09:57:51;;;;;;;6.93;1.77;;;28.20;99.90;;;;;;5047177;28;19921;-28
2022/08/22 10:00:29;;;;;;;7.07;2.08;;;28.30;99.90;;;;;;5052440;28;20491;-29
2022/08/22 10:03:18;;;;;;;7.07;2.28;;;27.60;99.90;;;;;;5051858;28;20051;-29
2022/08/22 10:05:58;;;;;;;10.32;2.80;;;27.50;99.90;;;;;;5051490;28;21751;-29
2022/08/22 10:08:39;;;;;;;7.30;2.15;;;27.80;99.90;;;;;;5048474;28;20061;-29
2022/08/22 10:11:31;;;;;;;7.93;2.10;;;28.20;99.90;;;;;;5051466;28;20474;-29
2022/08/22 10:13:59;;;;;;;10.48;2.10;;;28.30;99.90;;;;;;5052498;28;20291;-29
2022/08/22 10:16:44;;;;;;;7.43;1.98;;;28.30;99.90;;;;;;5052172;28;20128;-29
2022/08/22 10:19:37;;;;;;;9.20;2.40;;;28.60;99.90;;;;;;5053288;28;20041;-29
2022/08/22 10:22:40;;;;;;;9.13;2.47;;;28.90;99.90;;;;;;5049985;28;20045;-29
2022/08/22 10:25:34;;;;;;;6.88;2.33;;;28.90;99.90;;;;;;5052693;28;20041;-29
2022/08/22 10:28:27;;;;;;;8.48;2.33;;;29.10;99.90;;;;;;5053249;28;20091;-29
2022/08/22 10:30:56;;;;;;;9.00;1.80;;;29.40;99.90;;;;;;5052208;28;20053;-29
2022/08/22 10:33:44;;;;;;;7.85;2.47;;;29.30;99.90;;;;;;5052003;28;20556;-29
2022/08/22 10:36:14;;;;;;;10.35;2.60;;;29.30;99.90;;;;;;5052659;28;20076;-30
2022/08/22 10:38:53;;;;;;;6.55;2.30;;;29.10;99.90;;;;;;5052524;28;20056;-29
2022/08/22 10:41:35;;;;;;;8.55;2.50;;;29.30;99.90;;;;;;5053010;28;20041;-29
2022/08/22 10:44:37;;;;;;;9.63;1.83;;;29.30;99.90;;;;;;5053228;28;20127;-30
2022/08/22 10:47:12;;;;;;;8.50;2.20;;;29.60;99.90;;;;;;5053523;28;20087;-29
2022/08/22 10:49:55;;;;;;;13.65;1.95;;;29.70;99.90;;;;;;5052208;28;20516;-31
2022/08/22 10:52:26;;;;;;;8.23;2.88;;;30.00;99.90;;;;;;5048752;28;20057;-29
2022/08/22 10:54:56;;;;;;;6.97;2.00;;;29.90;99.90;;;;;;5048151;28;20045;-29
2022/08/22 10:57:27;;;;;;;9.10;2.17;;;29.80;99.90;;;;;;5053004;28;20049;-29
2022/08/22 11:00:27;;;;;;;7.55;2.28;;;30.00;99.90;;;;;;5052922;28;20056;-29
2022/08/22 11:03:00;;;;;;;6.63;2.30;;;29.40;99.90;;;;;;5044803;28;20055;-30
2022/08/22 11:05:35;;;;;;;6.85;2.10;;;28.40;99.90;;;;;;5056095;28;20561;-29
2022/08/22 11:08:34;;;;;;;8.40;1.92;;;27.60;99.90;;;;;;5048812;28;20053;-29
2022/08/22 11:11:08;;;;;;;8.02;2.47;;;27.40;99.90;;;;;;5056550;28;20041;-29
2022/08/22 11:13:57;;;;;;;7.90;2.20;;;27.90;99.90;;;;;;5056518;28;20049;-29
2022/08/22 11:16:41;;;;;;;8.40;1.95;;;28.40;99.90;;;;;;5056381;28;20467;-29
2022/08/22 11:19:30;;;;;;;4.55;1.83;;;28.10;99.90;;;;;;5043281;28;20042;-29
2022/08/22 11:22:26;;;;;;;7.60;2.20;;;28.00;99.90;;;;;;5036537;28;20053;-29
2022/08/22 11:25:14;;;;;;;10.18;2.38;;;28.20;99.90;;;;;;5036395;28;20072;-30
2022/08/22 11:28:38;;;;;;;10.15;2.58;;;27.80;99.90;;;;;;5036610;28;20053;-29
2022/08/22 11:31:28;;;;;;;6.68;1.92;;;27.00;99.90;;;;;;5034953;28;20053;-29
2022/08/22 11:34:08;;;;;;;9.60;2.30;;;26.50;99.90;;;;;;5035873;28;20056;-29
2022/08/22 11:36:50;;;;;;;10.27;2.28;;;26.70;99.90;;;;;;5036464;28;20081;-29
2022/08/22 11:39:42;;;;;;;7.03;2.17;;;27.30;99.90;;;;;;5041513;28;20049;-29
2022/08/22 11:42:26;;;;;;;9.32;2.08;;;27.40;99.90;;;;;;5054360;28;20668;-29
2022/08/22 11:44:55;;;;;;;7.93;2.20;;;27.00;99.90;;;;;;5055873;28;20056;-29
2022/08/22 11:47:27;;;;;;;10.48;2.10;;;26.40;99.90;;;;;;5054961;28;20052;-29
2022/08/22 11:50:13;;;;;;;9.55;2.35;;;26.70;99.90;;;;;;5055150;28;20045;-30
2022/08/22 11:52:51;;;;;;;8.57;2.15;;;27.40;99.90;;;;;;5056140;28;20085;-29
2022/08/22 11:55:43;;;;;;;9.95;2.47;;;28.50;99.90;;;;;;5056135;28;20055;-29
2022/08/22 11:58:48;;;;;;;8.38;2.30;;;29.20;99.90;;;;;;5056336;28;20095;-29
2022/08/22 12:01:24;;;;;;;5.70;1.67;;;28.90;99.90;;;;;;5054686;28;20048;-29
2022/08/22 12:03:53;;;;;;;8.80;2.28;;;28.10;99.90;;;;;;5056239;28;20051;-29
2022/08/22 12:06:42;;;;;;;7.20;2.05;;;27.50;99.90;;;;;;5055249;28;20100;-29
2022/08/22 12:09:11;;;;;;;12.02;2.95;;;27.30;99.90;;;;;;5056435;28;20041;-29
2022/08/22 12:11:53;;;;;;;8.73;2.17;;;26.80;99.90;;;;;;5053395;28;20099;-29
2022/08/22 12:14:33;;;;;;;9.57;2.28;;;26.50;99.90;;;;;;5052962;28;20045;-29
2022/08/22 12:17:21;;;;;;;5.93;2.35;;;26.30;99.90;;;;;;5050755;28;20048;-29
2022/08/22 12:20:05;;;;;;;8.98;2.72;;;26.10;99.90;;;;;;5055537;28;20491;-29
2022/08/22 12:23:10;;;;;;;6.00;1.45;;;25.90;99.90;;;;;;5055194;28;20048;-29
2022/08/22 12:26:10;;;;;;;8.43;2.05;;;25.60;99.90;;;;;;5054758;28;20056;-29
2022/08/22 12:28:54;;;;;;;6.65;2.05;;;25.70;99.90;;;;;;5055778;28;20057;-29
2022/08/22 12:31:41;;;;;;;9.25;2.30;;;25.90;99.90;;;;;;5055177;28;20055;-29
2022/08/22 12:34:16;;;;;;;11.50;1.80;;;26.10;99.90;;;;;;5053943;28;20049;-29
2022/08/22 12:36:44;;;;;;;8.27;1.88;;;26.20;99.90;;;;;;5053337;28;20040;-29
2022/08/22 12:39:43;;;;;;;8.45;2.00;;;26.10;99.90;;;;;;5054842;28;20036;-30
2022/08/22 12:42:22;;;;;;;8.52;2.67;;;26.20;99.90;;;;;;5054547;28;20048;-29
2022/08/22 12:45:44;;;;;;;9.23;2.05;;;26.20;99.90;;;;;;5055206;28;20124;-29
2022/08/22 12:48:44;;;;;;;11.30;2.17;;;26.10;99.90;;;;;;4995870;28;20492;-29
2022/08/22 12:51:24;;;;;;;9.98;1.98;;;26.10;99.90;;;;;;5013140;28;20518;-30
2022/08/22 12:54:13;;;;;;;6.25;1.45;;;25.90;99.90;;;;;;5031832;28;20053;-29
2022/08/22 12:56:58;;;;;;;6.13;1.55;;;25.70;99.90;;;;;;5053186;28;20063;-29
2022/08/22 12:59:36;;;;;;;5.97;1.67;;;25.50;99.90;;;;;;5054359;28;20395;-29
2022/08/22 13:02:23;;;;;;;9.27;2.15;;;25.50;99.90;;;;;;5052954;28;20051;-29
2022/08/22 13:04:56;;;;;;;6.30;2.28;;;25.50;99.90;;;;;;5069839;28;20471;-29
2022/08/22 13:07:27;;;;;;;8.25;2.83;;;25.80;99.90;;;;;;5048715;28;20395;-30
2022/08/22 13:10:29;;;;;;;7.43;1.58;;;26.60;99.90;;;;;;5051176;28;20064;-29
2022/08/22 13:13:03;;;;;;;8.00;1.80;;;27.00;99.90;;;;;;5017123;28;20107;-29
2022/08/22 13:15:41;;;;;;;8.32;2.30;;;27.00;99.90;;;;;;5052490;28;20056;-29
2022/08/22 13:18:24;;;;;;;7.22;2.47;;;26.90;99.90;;;;;;5052115;28;20115;-30
2022/08/22 13:20:58;;;;;;;7.72;1.90;;;26.90;99.90;;;;;;5043326;28;20045;-29
2022/08/22 13:23:52;;;;;;;8.13;1.88;;;27.50;99.90;;;;;;5034347;28;20064;-29
2022/08/22 13:26:20;;;;;;;6.80;1.58;;;28.60;99.90;;;;;;5031256;28;20057;-30
2022/08/22 13:28:56;;;;;;;5.13;1.80;;;29.30;99.90;;;;;;5034823;28;20041;-29
2022/08/22 13:31:31;;;;;;;5.43;1.70;;;30.00;99.90;;;;;;5052462;28;20055;-29
2022/08/22 13:34:04;;;;;;;7.32;1.60;;;30.60;99.90;;;;;;5053848;28;20072;-28
2022/08/22 13:36:39;;;;;;;7.75;1.63;;;30.30;99.90;;;;;;5054422;28;20049;-28
2022/08/22 13:39:29;;;;;;;7.50;1.98;;;30.00;99.90;;;;;;5052105;28;20072;-29
2022/08/22 13:41:58;;;;;;;5.05;1.63;;;29.70;99.90;;;;;;5056652;28;20049;-28
2022/08/22 13:44:40;;;;;;;6.85;1.73;;;29.00;99.90;;;;;;5053891;28;20128;-28
2022/08/22 13:47:16;;;;;;;5.45;1.75;;;28.20;99.90;;;;;;5053084;28;20080;-28
2022/08/22 13:49:50;;;;;;;7.68;1.83;;;27.40;99.90;;;;;;5053427;28;20167;-28
2022/08/22 13:52:57;;;;;;;6.80;1.90;;;26.90;99.90;;;;;;5052822;28;20409;-28
2022/08/22 13:55:50;;;;;;;6.68;1.40;;;26.70;99.90;;;;;;5048175;28;20445;-27
2022/08/22 13:58:42;;;;;;;8.13;2.17;;;26.50;99.90;;;;;;5048028;28;20056;-28
2022/08/22 14:01:29;;;;;;;7.35;1.65;;;26.30;99.90;;;;;;5036502;28;20506;-28
2022/08/22 14:04:27;;;;;;;6.45;1.70;;;26.10;99.90;;;;;;5054183;28;20053;-28
2022/08/22 14:07:19;;;;;;;5.72;1.60;;;25.90;99.90;;;;;;5053922;28;20092;-27
2022/08/22 14:09:56;;;;;;;4.47;1.38;;;25.80;99.90;;;;;;5053563;28;20053;-28